Latest Weather Observations for Jacup

IDW60801

Issued at 10:33 am WST Sunday 24 July 2016 (issued every 30 minutes, with the page automatically refreshed every 10 minutes)

About weather observations | Map of weather stations | Latest weather observations for WA | Other Formats
Station Details ID: 010905 Name: JACUP Lat: -33.89 Lon: 119.11 Height: 305.0 m
Data from the previous 72 hours. | See also: Recent months at Jacup
Date/Time
WST
Temp
°C
App
Temp
°C
Dew
Point
°C
Rel
Hum
%
Delta-T
°C
Wind Press
QNH
hPa
Press
MSL
hPa
Rain since
9am
mm
Dir  Spd
km/h
Gust
km/h
Spd
kts
Gust
kts
24/10:30am 11.1 6.8 5.4 68 2.6 W 17 26 9 14 1026.3 1026.5 0.0
24/10:00am 10.3 6.4 5.3 71 2.3 W 15 22 8 12 1026.3 1026.5 0.0
24/09:30am 8.1 4.2 5.2 82 1.3 W 15 22 8 12 1026.3 1026.5 0.0
24/09:00am 7.0 3.3 4.7 85 1.0 WNW 13 19 7 10 1026.3 1026.5 1.8
24/08:30am 6.5 3.2 4.8 89 0.8 WNW 11 17 6 9 1026.1 1026.3 1.8
24/08:00am 5.6 2.7 4.4 92 0.5 W 9 13 5 7 1025.9 1026.1 1.8
24/07:30am 5.2 2.2 4.0 92 0.5 WNW 9 13 5 7 1025.5 1025.7 1.8
24/07:00am 5.1 2.1 3.9 92 0.5 WNW 9 15 5 8 1025.1 1025.3 1.8
24/06:30am 5.0 1.9 3.8 92 0.5 WNW 9 13 5 7 1024.9 1025.1 1.8
24/06:00am 4.9 1.1 3.7 92 0.5 W 13 17 7 9 1024.6 1024.8 1.8
24/05:30am 4.7 1.6 3.5 92 0.5 WNW 9 11 5 6 1024.2 1024.5 1.8
24/05:00am 4.5 0.6 3.3 92 0.5 WNW 13 17 7 9 1024.1 1024.4 1.8
24/04:30am 4.1 0.9 3.1 93 0.4 WNW 9 13 5 7 1024.0 1024.3 1.8
24/04:00am 3.9 0.7 2.9 93 0.4 W 9 11 5 6 1024.0 1024.3 1.8
24/03:30am 3.4 0.4 2.2 92 0.5 WNW 7 11 4 6 1024.1 1024.4 1.8
24/03:00am 3.8 0.5 2.5 91 0.5 W 9 15 5 8 1024.1 1024.4 1.8
24/02:30am 3.8 -0.2 2.6 92 0.5 W 13 19 7 10 1024.1 1024.4 1.8
24/02:00am 3.3 -0.1 2.0 91 0.5 WNW 9 13 5 7 1024.2 1024.5 1.8
24/01:30am 3.4 -0.3 2.2 92 0.5 WNW 11 17 6 9 1024.1 1024.4 1.6
24/01:00am 2.8 -1.0 1.6 92 0.5 WNW 11 13 6 7 1023.9 1024.2 1.6
24/12:30am 2.8 -1.0 1.5 91 0.5 W 11 17 6 9 1023.9 1024.2 1.6
24/12:00am 2.9 -1.0 1.4 90 0.6 W 11 15 6 8 1023.9 1024.2 1.6
 
Date/Time
WST
Temp
°C
App
Temp
°C
Dew
Point
°C
Rel
Hum
%
Delta-T
°C
Wind Press
QNH
hPa
Press
MSL
hPa
Rain since
9am
mm
Dir  Spd
km/h
Gust
km/h
Spd
kts
Gust
kts
23/11:30pm 2.7 -0.8 1.1 89 0.6 WNW 9 15 5 8 1024.0 1024.3 1.6
23/11:00pm 2.8 -1.5 1.0 88 0.7 W 13 17 7 9 1023.9 1024.2 1.6
23/10:30pm 2.7 -0.9 0.8 87 0.7 WNW 9 13 5 7 1023.9 1024.2 1.6
23/10:00pm 3.1 -0.9 0.8 85 0.9 W 11 15 6 8 1023.8 1024.0 1.6
23/09:30pm 3.7 -0.2 1.4 85 0.9 W 11 17 6 9 1023.6 1023.8 1.6
23/09:00pm 3.8 -0.4 1.7 86 0.8 WSW 13 19 7 10 1023.3 1023.5 1.6
23/08:30pm 3.4 -0.5 1.1 85 0.9 W 11 15 6 8 1023.1 1023.3 1.6
23/08:00pm 4.5 0.4 2.0 84 1.0 WSW 13 17 7 9 1022.9 1023.1 1.6
23/07:30pm 4.6 0.5 2.3 85 0.9 WSW 13 17 7 9 1022.9 1023.1 1.6
23/07:00pm 5.2 0.8 2.7 84 1.0 WSW 15 24 8 13 1022.6 1022.8 1.6
23/06:30pm 5.4 1.4 2.8 83 1.1 WSW 13 17 7 9 1022.3 1022.5 1.6
23/06:00pm 5.7 2.1 3.2 84 1.1 WSW 11 17 6 9 1022.0 1022.2 1.6
23/05:30pm 6.6 1.6 4.4 86 1.0 SW 20 35 11 19 1021.5 1021.7 1.6
23/05:00pm 6.7 3.1 5.0 89 0.8 SW 13 17 7 9 1021.1 1021.2 1.6
23/04:30pm 7.6 1.8 4.4 80 1.4 SW 24 50 13 27 1020.9 1021.0 1.4
23/04:00pm 9.1 3.5 3.5 68 2.5 SW 22 41 12 22 1020.3 1020.5 1.2
23/03:30pm 9.7 4.7 4.7 71 2.3 SW 20 33 11 18 1019.9 1020.1 1.2
23/03:00pm 9.6 3.0 4.4 70 2.3 SW 28 43 15 23 1019.7 1019.9 1.2
23/02:30pm 11.1 3.7 3.9 61 3.3 SW 32 46 17 25 1019.1 1019.3 1.2
23/02:19pm 10.7 4.1 4.0 63 3.0 SW 28 46 15 25 1019.0 1019.2 1.2
23/02:00pm 10.1 4.1 5.5 73 2.1 SW 26 43 14 23 1019.0 1019.2 1.2
23/01:30pm 9.5 4.8 7.6 88 0.9 WSW 22 32 12 17 1018.8 1019.0 1.2
23/01:15pm 8.6 2.6 7.1 90 0.7 SW 28 48 15 26 1019.1 1019.3 1.2
23/01:00pm 8.9 3.4 7.7 92 0.6 SW 26 43 14 23 1019.2 1019.4 1.2
23/12:30pm 9.3 4.3 7.9 91 0.7 WSW 24 37 13 20 1018.9 1019.1 0.6
23/12:00pm 9.5 3.5 7.1 85 1.1 W 28 44 15 24 1019.0 1019.2 0.0
23/11:31am 10.0 3.2 6.7 80 1.6 W 32 50 17 27 1019.1 1019.3 0.0
23/11:30am 10.1 3.2 6.4 78 1.8 W 32 48 17 26 1019.1 1019.3 0.0
23/11:08am 10.6 3.6 5.8 72 2.3 W 32 52 17 28 1019.0 1019.2 0.0
23/11:00am 11.0 3.9 5.7 70 2.5 W 32 48 17 26 1019.0 1019.2 0.0
23/10:30am 11.5 3.9 5.8 68 2.7 W 35 54 19 29 1018.8 1019.0 0.0
23/10:22am 11.3 4.2 5.6 68 2.7 W 32 54 17 29 1018.8 1019.0 0.0
23/10:00am 10.3 3.5 5.3 71 2.3 W 30 46 16 25 1019.0 1019.2 0.0
23/09:57am 10.4 4.0 5.2 70 2.4 W 28 46 15 25 1019.1 1019.3 0.0
23/09:30am 10.0 3.9 5.0 71 2.3 WNW 26 39 14 21 1018.7 1018.9 0.0
23/09:00am 8.8 3.4 4.4 74 2.0 WNW 22 39 12 21 1019.2 1019.4 0.0
23/08:30am 8.0 3.1 4.2 77 1.7 WNW 19 32 10 17 1019.3 1019.5 0.0
23/08:00am 7.2 3.0 3.8 79 1.5 NW 15 24 8 13 1019.4 1019.6 0.0
23/07:30am 6.1 1.8 3.4 83 1.2 WNW 15 20 8 11 1019.6 1019.8 0.0
23/07:00am 6.2 1.2 3.7 84 1.1 WNW 19 26 10 14 1019.6 1019.8 0.0
23/06:30am 5.7 1.4 3.5 86 0.9 WNW 15 20 8 11 1019.7 1019.9 0.0
23/06:00am 5.5 0.9 3.5 87 0.8 WNW 17 24 9 13 1019.8 1020.0 0.0
23/05:30am 6.4 1.8 3.7 83 1.2 WNW 17 26 9 14 1020.0 1020.2 0.0
23/05:00am 6.4 2.2 3.6 82 1.2 WNW 15 24 8 13 1020.1 1020.3 0.0
23/04:30am 6.2 2.0 3.9 85 1.0 WNW 15 24 8 13 1020.2 1020.4 0.0
23/04:00am 5.9 1.8 4.1 88 0.8 WNW 15 20 8 11 1020.3 1020.5 0.0
23/03:30am 5.6 1.8 4.1 90 0.6 NW 13 20 7 11 1020.5 1020.7 0.0
23/03:00am 5.8 2.5 4.3 90 0.7 WNW 11 15 6 8 1021.0 1021.1 0.0
23/02:30am 6.1 1.7 4.6 90 0.7 WNW 17 26 9 14 1021.2 1021.4 0.0
23/02:00am 5.8 2.5 4.3 90 0.7 WNW 11 15 6 8 1021.2 1021.4 0.0
23/01:30am 6.0 3.0 4.3 89 0.7 WNW 9 13 5 7 1021.3 1021.5 0.0
23/01:00am 5.9 2.5 4.2 89 0.7 NW 11 17 6 9 1021.3 1021.5 0.0
23/12:30am 5.8 2.8 4.3 90 0.7 NW 9 11 5 6 1021.4 1021.6 0.0
23/12:00am 5.5 2.9 4.3 92 0.5 WNW 7 11 4 6 1021.7 1021.9 0.0
 
Date/Time
WST
Temp
°C
App
Temp
°C
Dew
Point
°C
Rel
Hum
%
Delta-T
°C
Wind Press
QNH
hPa
Press
MSL
hPa
Rain since
9am
mm
Dir  Spd
km/h
Gust
km/h
Spd
kts
Gust
kts
22/11:30pm 5.2 2.2 4.2 93 0.4 NW 9 11 5 6 1021.8 1022.0 0.0
22/11:00pm 4.9 1.9 4.0 94 0.4 NW 9 13 5 7 1022.0 1022.2 0.0
22/10:30pm 4.0 0.4 3.1 94 0.4 NW 11 13 6 7 1022.2 1022.4 0.0
22/10:00pm 3.1 -0.3 2.1 93 0.4 WNW 9 11 5 6 1022.5 1022.7 0.0
22/09:30pm 3.0 -0.4 1.8 92 0.5 WNW 9 13 5 7 1022.7 1022.9 0.0
22/09:00pm 3.4 0.0 2.1 91 0.5 W 9 11 5 6 1022.9 1023.1 0.0
22/08:30pm 3.9 1.0 2.6 91 0.5 W 7 9 4 5 1022.9 1023.1 0.0
22/08:00pm 3.8 0.5 2.2 89 0.6 W 9 11 5 6 1023.0 1023.2 0.0
22/07:30pm 4.5 1.6 2.5 87 0.8 SW 7 9 4 5 1022.8 1023.0 0.0
22/07:00pm 5.3 3.4 2.7 83 1.1 SW 2 7 1 4 1022.5 1022.7 0.0
22/06:30pm 6.7 5.2 3.0 77 1.6 CALM 0 0 0 0 1022.5 1022.7 0.0
22/06:00pm 7.4 5.5 2.9 73 1.9 SW 2 6 1 3 1022.4 1022.6 0.0
22/05:30pm 7.9 5.0 2.6 69 2.3 SW 7 11 4 6 1022.0 1022.2 0.0
22/05:00pm 8.9 4.9 2.9 66 2.6 SW 13 17 7 9 1021.9 1022.1 0.0
22/04:30pm 9.7 5.4 3.2 64 2.9 WSW 15 24 8 13 1021.8 1022.0 0.0
22/04:00pm 9.5 6.0 3.5 66 2.6 WSW 11 19 6 10 1021.7 1021.9 0.0
22/03:30pm 10.9 6.0 2.0 54 3.8 WSW 17 24 9 13 1021.5 1021.7 0.0
22/03:00pm 10.9 6.5 2.5 56 3.7 SW 15 22 8 12 1021.3 1021.5 0.0
22/02:30pm 11.1 6.2 3.9 61 3.3 SSW 19 28 10 15 1021.3 1021.5 0.0
22/02:00pm 11.2 6.1 3.0 57 3.6 SW 19 30 10 16 1021.2 1021.4 0.0
22/01:30pm 10.0 5.0 3.7 65 2.8 WSW 19 33 10 18 1021.1 1021.2 0.0
22/01:00pm 10.2 4.9 2.8 60 3.2 WSW 20 30 11 16 1021.1 1021.2 0.0
22/12:30pm 9.9 4.9 3.6 65 2.8 WSW 19 24 10 13 1021.2 1021.4 0.0
22/12:00pm 10.8 6.3 4.0 63 3.1 WSW 17 28 9 15 1021.2 1021.4 0.0
22/11:30am 10.4 5.3 3.2 61 3.2 SW 19 28 10 15 1021.2 1021.4 0.0
22/11:00am 9.4 4.0 2.7 63 2.9 SW 20 32 11 17 1021.3 1021.5 0.0
22/10:30am 8.7 3.7 3.5 70 2.3 WSW 19 32 10 17 1021.1 1021.2 0.0
22/10:00am 8.3 3.8 4.1 75 1.9 W 17 26 9 14 1021.0 1021.1 0.0
22/09:30am 6.9 1.7 3.3 78 1.5 W 20 32 11 17 1020.4 1020.6 0.0
22/09:00am 6.7 2.1 3.9 82 1.2 W 17 26 9 14 1019.8 1020.0 2.4
22/08:30am 5.7 1.5 3.7 87 0.9 W 15 22 8 12 1019.3 1019.5 2.4
22/08:00am 4.3 -0.1 2.8 90 0.6 W 15 20 8 11 1018.8 1019.0 2.4
22/07:30am 3.6 -0.5 2.1 90 0.6 W 13 19 7 10 1018.1 1018.2 2.4
22/07:00am 3.8 -0.3 2.5 91 0.5 W 13 20 7 11 1017.7 1017.8 2.4
22/06:30am 3.6 -1.2 2.4 92 0.5 W 17 26 9 14 1017.0 1017.2 2.4
22/06:00am 3.7 -1.5 2.5 92 0.5 W 19 26 10 14 1016.5 1016.7 2.4
22/05:30am 4.0 -0.8 2.8 92 0.5 W 17 26 9 14 1016.1 1016.3 2.4
22/05:00am 4.0 -1.3 2.8 92 0.5 W 20 28 11 15 1015.8 1016.0 2.4
22/04:30am 4.1 -1.0 3.1 93 0.4 W 19 28 10 15 1015.7 1015.9 2.4
22/04:00am 4.2 -0.9 3.0 92 0.5 W 19 26 10 14 1015.3 1015.4 2.4
22/03:30am 4.6 -0.6 3.3 91 0.5 W 20 32 11 17 1014.8 1014.9 2.2
22/03:00am 4.7 -0.9 3.2 90 0.6 W 22 32 12 17 1014.3 1014.4 1.8
22/02:30am 4.6 -0.7 3.1 90 0.6 W 20 30 11 16 1013.9 1014.1 1.8
22/02:00am 4.9 -0.8 3.1 88 0.8 W 22 33 12 18 1013.5 1013.7 1.8
22/01:30am 5.4 -0.6 3.4 87 0.8 W 24 41 13 22 1013.0 1013.2 1.8
22/01:00am 5.5 -0.5 3.3 86 0.9 W 24 37 13 20 1012.5 1012.6 1.8
22/12:30am 5.8 -0.2 3.6 86 0.9 W 24 41 13 22 1012.0 1012.1 1.8
22/12:00am 6.3 0.1 4.3 87 0.9 WSW 26 41 14 22 1011.6 1011.7 1.8
 
Date/Time
WST
Temp
°C
App
Temp
°C
Dew
Point
°C
Rel
Hum
%
Delta-T
°C
Wind Press
QNH
hPa
Press
MSL
hPa
Rain since
9am
mm
Dir  Spd
km/h
Gust
km/h
Spd
kts
Gust
kts
21/11:30pm 6.7 0.3 5.0 89 0.8 W 28 46 15 25 1010.9 1011.0 1.8
21/11:27pm 6.7 0.3 5.0 89 0.8 W 28 46 15 25 1010.9 1011.0 1.8
21/11:00pm 6.8 1.2 5.4 91 0.6 W 24 35 13 19 1010.4 1010.6 1.8
21/10:30pm 7.1 0.8 5.7 91 0.6 W 28 44 15 24 1010.1 1010.3 1.8
21/10:08pm 7.3 1.1 6.2 93 0.5 W 28 46 15 25 1009.8 1009.9 1.8
21/10:00pm 7.5 2.1 6.4 93 0.5 W 24 43 13 23 1009.9 1010.0 1.4
21/09:30pm 7.4 2.0 6.2 92 0.6 W 24 37 13 20 1009.5 1009.6 1.0
21/09:00pm 7.6 2.1 5.7 88 0.9 W 24 41 13 22 1009.1 1009.2 0.6
21/08:30pm 7.8 1.3 4.9 82 1.3 WNW 28 43 15 23 1008.8 1008.9 0.4
21/08:00pm 8.0 1.8 4.2 77 1.7 WNW 26 41 14 22 1008.6 1008.7 0.4
21/07:30pm 8.7 1.6 3.5 70 2.3 WNW 30 52 16 28 1008.5 1008.6 0.4
21/07:23pm 8.9 1.8 3.3 68 2.4 WNW 30 52 16 28 1008.5 1008.6 0.4
21/07:00pm 8.4 2.7 2.6 67 2.5 WNW 22 33 12 18 1008.2 1008.3 0.4
21/06:30pm 8.0 2.5 2.0 66 2.5 NW 20 33 11 18 1007.9 1008.0 0.4
21/06:00pm 8.3 2.1 1.9 64 2.7 NW 24 35 13 19 1007.6 1007.7 0.4
21/05:30pm 8.3 2.5 2.1 65 2.6 WNW 22 37 12 20 1007.3 1007.3 0.4
21/05:00pm 8.5 3.0 1.9 63 2.8 WNW 20 37 11 20 1007.5 1007.6 0.4
21/04:30pm 9.5 2.9 1.9 59 3.2 WNW 26 46 14 25 1007.0 1007.1 0.4
21/04:00pm 10.2 4.0 2.1 57 3.5 W 24 41 13 22 1006.9 1007.0 0.4
21/03:30pm 10.2 3.1 1.6 55 3.7 W 28 50 15 27 1006.9 1007.0 0.4
21/03:00pm 10.7 3.9 3.3 60 3.3 W 28 48 15 26 1006.9 1007.0 0.4
21/02:30pm 10.9 3.8 3.5 60 3.3 W 30 48 16 26 1006.9 1007.0 0.4
21/02:13pm 10.4 3.6 3.2 61 3.2 W 28 46 15 25 1007.0 1007.1 0.4
21/02:00pm 9.4 3.3 4.8 73 2.1 WSW 26 46 14 25 1007.0 1007.1 0.4
21/01:56pm 8.8 2.1 5.5 80 1.5 W 30 48 16 26 1007.2 1007.2 0.4
21/01:30pm 9.0 3.5 6.1 82 1.4 W 24 35 13 19 1007.2 1007.2 0.4
21/01:02pm 10.1 3.0 3.8 65 2.8 WSW 30 48 16 26 1007.2 1007.2 0.0
21/01:00pm 10.2 3.5 3.9 65 2.8 W 28 41 15 22 1007.0 1007.1 0.0
21/12:49pm 10.9 4.4 4.8 66 2.8 W 28 46 15 25 1007.0 1007.1 0.0
21/12:30pm 11.2 4.3 4.7 64 3.0 W 30 41 16 22 1007.0 1007.1 0.0
21/12:20pm 11.3 4.8 4.7 64 3.0 W 28 46 15 25 1006.9 1007.0 0.0
21/12:00pm 10.6 4.5 4.9 68 2.6 W 26 39 14 21 1007.2 1007.2 0.0
21/11:30am 10.8 5.3 5.8 71 2.4 W 24 35 13 19 1007.3 1007.3 0.0
21/11:00am 10.1 4.6 6.1 76 1.9 WSW 24 37 13 20 1007.5 1007.6 0.0

Other Formats:

Comma delimited format used in spreadsheet applications
http://www.bom.gov.au/fwo/IDW60801/IDW60801.95636.axf

JavaScript Object Notation format (JSON) in row-major order
http://www.bom.gov.au/fwo/IDW60801/IDW60801.95636.json